• Join FlightAware (Why Join?)
  • Login
  • US Flag 
05:56AM EDT


 

Airport Tracker/Info


-or-


 

Live Flight TrackerFlight Track Log ✈ N742AX ✈ 19-Apr-2013 ✈ KMIA - TBPB / BGI

Flight Track Log - Related Links

Times and Time Zones

All times are in EDT time to prevent confusion due to time zone crossing. See the N742AX flight status page for this flight to view local times or setup timezone preferences in your user account.

Time Position Orientation Groundspeed Altitude Reporting Facility
EDT Latitude Longitude Course Direction KTS MPH feet Rate Location/Type
04:19AM 25.7890 -80.2970 138° Southeast 150 173  Level FlightAware
04:20AM 25.7910 -80.2730 85° East 156 180 1,100 1,740 Climbing FlightAware
04:20AM 25.7880 -80.2510 99° East 176 203 1,600 1,260 Climbing FlightAware
04:20AM 25.7850 -80.2220 97° East 209 241 2,300 1,620 Climbing FlightAware
04:21AM 25.7800 -80.1950 102° East 217 250 3,100 1,800 Climbing FlightAware
04:21AM 25.7610 -80.1640 124° Southeast 244 281 4,000 2,160 Climbing FlightAware
04:22AM 25.7500 -80.1370 114° Southeast 255 293 5,100 2,580 Climbing FlightAware
04:22AM 25.7430 -80.0980 101° East 261 300 6,400 2,580 Climbing FlightAware
04:23AM 25.7340 -80.0580 104° East 267 307 7,700 2,580 Climbing FlightAware
04:23AM 25.7260 -80.0220 104° East 277 319 8,800 2,280 Climbing FlightAware
04:24AM 25.7170 -79.9830 104° East 288 331 9,800 1,800 Climbing FlightAware
04:24AM 25.7040 -79.9200 103° East 323 372 10,900 1,320 Climbing FlightAware
04:25AM 25.6860 -79.8440 105° East 365 420 11,700 1,080 Climbing FlightAware
04:26AM 25.6690 -79.7670 104° East 397 457 12,500 1,200 Climbing FlightAware
04:27AM 25.6480 -79.6740 104° East 423 487 13,400 1,680 Climbing FlightAware
04:27AM 25.6290 -79.5880 104° East 423 487 14,900 2,100 Climbing FlightAware
04:28AM 25.6110 -79.5040 103° East 430 495 16,200 1,740 Climbing FlightAware
04:29AM 25.5900 -79.4090 104° East 440 506 17,400 1,440 Climbing FlightAware
04:29AM 25.5700 -79.3190 104° East 453 521 18,300 1,320 Climbing FlightAware
04:30AM 25.5490 -79.2330 105° East 463 533 19,200 1,380 Climbing FlightAware
04:31AM 25.4920 -79.0300 107° East 470 541 21,400 1,380 Climbing FlightAware
04:32AM 25.4510 -78.8840 107° East 497 572 22,700 1,080 Climbing FlightAware
04:33AM 25.4170 -78.7620 107° East 513 590 23,400 1,080 Climbing FlightAware
04:34AM 25.3950 -78.6860 108° East 515 593 24,300 1,500 Climbing FlightAware
04:35AM 25.3590 -78.5600 108° East 515 593 25,400 1,560 Climbing FlightAware
04:35AM 25.3270 -78.4480 108° East 513 590 26,700 1,740 Climbing FlightAware
04:36AM 25.3080 -78.3820 108° East 506 582 27,600 600 Climbing FlightAware
04:37AM 25.2760 -78.2570 106° East 506 582 27,600  Level FlightAware
04:37AM 25.2540 -78.1730 106° East 506 582 27,600  Level FlightAware
04:38AM 25.2320 -78.0880 106° East 506 582 27,600  Level FlightAware
04:39AM 25.2100 -78.0030 106° East 506 582 27,600  Level FlightAware
04:39AM 25.1880 -77.9190 106° East 506 582 27,600 5,460 Level FlightAware
04:40AM 25.1306 -77.8114 106° East 501 577 32,900 4,980 Climbing Miami Center
04:41AM 25.0894 -77.6689 108° East 501 577 34,100 1,020 Climbing Miami Center
04:42AM 25.0444 -77.5172 108° East 501 577 35,000 420 Climbing Miami Center
04:43AM 25.0011 -77.3769 109° East 501 577 35,000  Level Miami Center
04:44AM 24.9533 -77.2233 109° East 516 594 35,000  Level Miami Center
04:45AM 24.8825 -77.0903 120° Southeast 504 580 35,000  Level Miami Center
04:46AM 24.8094 -76.9572 121° Southeast 499 574 35,000  Level Miami Center
04:47AM 24.7386 -76.8244 120° Southeast 504 580 35,000  Level Miami Center
04:48AM 24.6694 -76.6964 121° Southeast 504 580 35,000  Level Miami Center
04:49AM 24.5981 -76.5639 121° Southeast 499 574 35,000  Level Miami Center
04:50AM 24.5289 -76.4294 119° Southeast 499 574 35,000  Level Miami Center
04:51AM 24.4594 -76.3017 121° Southeast 499 574 35,000  Level Miami Center
04:52AM 24.3900 -76.1719 120° Southeast 493 567 35,000  Level Miami Center
04:53AM 24.3203 -76.0425 121° Southeast 493 567 35,000  Level Miami Center
04:54AM 24.2486 -75.9108 121° Southeast 493 567 35,000  Level Miami Center
04:55AM 24.1722 -75.7700 121° Southeast 493 567 35,000  Level Miami Center
04:56AM 24.0981 -75.6364 121° Southeast 493 567 35,000  Level Miami Center
04:57AM 24.0281 -75.5050 120° Southeast 493 567 35,000  Level Miami Center
04:58AM 23.9578 -75.3717 120° Southeast 498 573 35,000  Level Miami Center
04:59AM 23.8833 -75.2431 122° Southeast 498 573 35,000  Level Miami Center
05:00AM 23.8108 -75.1100 121° Southeast 498 573 35,000  Level Miami Center
05:01AM 23.7381 -74.9817 122° Southeast 498 573 35,000  Level Miami Center
05:02AM 23.6653 -74.8511 121° Southeast 498 573 35,000  Level Miami Center
05:03AM 23.5903 -74.7186 122° Southeast 503 579 35,000  Level Miami Center
05:04AM 23.5194 -74.5908 121° Southeast 503 579 35,000  Level Miami Center
05:05AM 23.4464 -74.4583 121° Southeast 508 585 35,000  Level Miami Center
05:06AM 23.3711 -74.3264 122° Southeast 508 585 35,000  Level Miami Center
05:07AM 23.2978 -74.1967 122° Southeast 508 585 35,000  Level Miami Center
05:08AM 23.2244 -74.0669 122° Southeast 502 578 35,000  Level Miami Center
05:09AM 23.1489 -73.9353 122° Southeast 507 583 35,000  Level Miami Center
05:10AM 23.0814 -73.8036 119° Southeast 507 583 35,000  Level Miami Center
05:11AM 22.9994 -73.6769 125° Southeast 507 583 35,000  Level Miami Center
05:12AM 22.9278 -73.5458 121° Southeast 507 583 35,000  Level Miami Center
05:13AM 22.8644 -73.4303 121° Southeast 507 583 35,000  Level Miami Center
05:14AM 22.7906 -73.2992 121° Southeast 507 583 35,000  Level Miami Center
05:15AM 22.7142 -73.1686 122° Southeast 507 583 35,000  Level Miami Center
05:16AM 22.6314 -73.0292 123° Southeast 502 578 35,000  Level Miami Center
05:17AM 22.5569 -72.8967 121° Southeast 507 583 35,000  Level Miami Center
05:18AM 22.4806 -72.7686 123° Southeast 512 589 35,000  Level Miami Center
05:19AM 22.4039 -72.6408 123° Southeast 512 589 35,000  Level Miami Center
05:20AM 22.3272 -72.5086 122° Southeast 512 589 35,000  Level Miami Center
05:21AM 22.2544 -72.3786 121° Southeast 512 589 35,000  Level Miami Center
05:22AM 22.1797 -72.2511 122° Southeast 512 589 35,000  Level Miami Center
05:23AM 22.1006 -72.1175 123° Southeast 512 589 35,000  Level Miami Center
05:24AM 22.0256 -71.9881 122° Southeast 512 589 35,000  Level Miami Center
05:25AM 21.9483 -71.8589 123° Southeast 512 589 35,000  Level Miami Center
05:26AM 21.8728 -71.7275 122° Southeast 512 589 35,000  Level Miami Center
05:27AM 21.7956 -71.5989 123° Southeast 512 589 35,000  Level Miami Center
05:28AM 21.7178 -71.4678 123° Southeast 512 589 35,000  Level Miami Center
05:29AM 21.6425 -71.3417 123° Southeast 507 583 35,000  Level Miami Center
05:30AM 21.5667 -71.2108 122° Southeast 507 583 35,000  Level Miami Center
05:31AM 21.5044 -71.1019 122° Southeast 507 583 35,000  Level Miami Center
05:32AM 21.4133 -70.9611 125° Southeast 507 583 35,000  Level Miami Center
05:33AM 21.3356 -70.8356 124° Southeast 512 589 35,000  Level Miami Center
05:34AM 21.2575 -70.7078 123° Southeast 512 589 35,000  Level Miami Center
05:35AM 21.1817 -70.5822 123° Southeast 517 595 35,000  Level Miami Center
05:36AM 21.1033 -70.4550 123° Southeast 517 595 35,000  Level Miami Center
05:37AM 21.0272 -70.3319 124° Southeast 517 595 35,000  Level Miami Center
05:38AM 20.9489 -70.2047 123° Southeast 517 595 35,000  Level Miami Center
05:39AM 20.8725 -70.0756 122° Southeast 517 595 35,000  Level Miami Center
05:40AM 20.7961 -69.9508 123° Southeast 512 589 35,000  Level Miami Center
05:41AM 20.7175 -69.8242 124° Southeast 512 589 35,000  Level Miami Center
05:42AM 20.6389 -69.6975 124° Southeast 512 589 35,000  Level Miami Center
05:43AM 20.5642 -69.5733 123° Southeast 512 589 35,000  Level Miami Center
05:44AM 20.4897 -69.4489 123° Southeast 512 589 35,000  Level Miami Center
05:45AM 20.4106 -69.3231 124° Southeast 507 583 35,000  Level Miami Center
05:46AM 20.3317 -69.1992 124° Southeast 507 583 35,000  Level Miami Center
05:47AM 20.2547 -69.0733 123° Southeast 512 589 35,000  Level Miami Center
05:48AM 20.1756 -68.9500 124° Southeast 512 589 35,000  Level Miami Center
05:49AM 20.0964 -68.8222 123° Southeast 512 589 35,000  Level Miami Center
05:50AM 20.0189 -68.6969 123° Southeast 512 589 35,000  Level Miami Center
05:51AM 19.9375 -68.5694 124° Southeast 512 589 35,000  Level Miami Center
05:52AM 19.8486 -68.4275 124° Southeast 517 595 35,000  Level Miami Center
05:52AM 19.8167 -68.3667 119° Southeast 520 598 35,000  Level San Juan Center
05:58AM 19.3550 -67.5890 119° Southeast 543 625 35,000  Level FlightAware
05:59AM 19.2990 -67.5020 124° Southeast 543 625 35,000  Level FlightAware
06:00AM 19.2330 -67.3990 124° Southeast 543 625 35,000  Level FlightAware
06:00AM 19.1770 -67.3110 124° Southeast 542 624 35,000  Level FlightAware
06:01AM 19.1200 -67.2220 124° Southeast 541 623 35,000  Level FlightAware
06:02AM 19.0590 -67.1270 124° Southeast 539 620 35,000  Level FlightAware
06:02AM 19.0030 -67.0380 124° Southeast 539 620 35,000  Level FlightAware
06:03AM 18.9390 -66.9390 124° Southeast 540 621 35,000  Level FlightAware
06:04AM 18.8850 -66.8550 124° Southeast 540 621 35,000  Level FlightAware
06:04AM 18.8350 -66.7780 124° Southeast 539 620 35,000  Level FlightAware
06:05AM 18.7810 -66.6920 124° Southeast 539 620 35,000  Level FlightAware
06:06AM 18.7090 -66.5810 124° Southeast 538 619 35,000  Level FlightAware
06:06AM 18.6510 -66.4910 124° Southeast 538 619 35,000  Level FlightAware
06:07AM 18.5900 -66.3970 124° Southeast 536 617 35,000  Level FlightAware
06:08AM 18.5340 -66.3100 124° Southeast 536 617 35,000  Level FlightAware
06:09AM 18.4690 -66.2100 124° Southeast 536 617 35,000  Level FlightAware
06:09AM 18.4140 -66.1240 124° Southeast 535 616 35,000  Level FlightAware
06:10AM 18.3600 -66.0420 125° Southeast 535 616 35,000  Level FlightAware
06:11AM 18.2980 -65.9440 124° Southeast 532 612 35,000  Level FlightAware
06:11AM 18.2420 -65.8580 124° Southeast 532 612 35,000  Level FlightAware
06:12AM 18.1790 -65.7610 124° Southeast 531 611 35,000  Level FlightAware
06:13AM 18.1230 -65.6740 124° Southeast 531 611 35,000  Level FlightAware
06:13AM 18.0680 -65.5890 124° Southeast 531 611 35,000  Level FlightAware
06:14AM 18.0070 -65.4960 125° Southeast 533 613 35,000  Level FlightAware
06:15AM 17.9510 -65.4100 124° Southeast 533 613 35,000  Level FlightAware
06:16AM 17.8950 -65.3240 124° Southeast 532 612 35,000  Level FlightAware
06:16AM 17.8310 -65.2260 124° Southeast 535 616 35,000  Level FlightAware
06:17AM 17.7740 -65.1410 125° Southeast 536 617 35,000  Level FlightAware
06:18AM 17.7180 -65.0550 124° Southeast 537 618 35,000  Level FlightAware
06:18AM 17.6590 -64.9660 125° Southeast 538 619 35,000  Level FlightAware
06:19AM 17.6140 -64.8960 124° Southeast 538 619 35,000  Level FlightAware
06:20AM 17.5550 -64.8040 124° Southeast 538 619 35,000  Level FlightAware
06:20AM 17.5080 -64.7300 124° Southeast 538 619 35,000  Level FlightAware
06:21AM 17.4610 -64.6570 124° Southeast 538 619 35,000  Level FlightAware
06:22AM 17.4130 -64.5830 124° Southeast 538 619 35,000  Level FlightAware
06:23AM 17.3540 -64.4910 124° Southeast 538 619 35,000  Level FlightAware
06:23AM 17.3070 -64.4180 124° Southeast 538 619 35,000  Level FlightAware
06:24AM 17.2590 -64.3440 124° Southeast 538 619 35,000  Level FlightAware
06:25AM 17.2120 -64.2710 124° Southeast 538 619 35,000  Level FlightAware
06:25AM 17.1650 -64.1980 124° Southeast 538 619 35,000  Level FlightAware
06:26AM 17.1060 -64.1060 124° Southeast 538 619 35,000  Level FlightAware
06:27AM 17.0580 -64.0320 124° Southeast 538 619 35,000  Level FlightAware
06:27AM 17.0110 -63.9590 124° Southeast 538 619 35,000  Level FlightAware
06:28AM 16.9640 -63.8860 124° Southeast 538 619 35,000  Level FlightAware
06:31AM 16.6240 -63.4220 127° Southeast 518 596 35,000  Level FlightAware
06:32AM 16.5510 -63.3160 126° Southeast 519 597 35,000  Level FlightAware
06:32AM 16.4860 -63.2220 126° Southeast 516 594 35,000  Level FlightAware
06:33AM 16.4050 -63.1030 125° Southeast 516 594 35,000  Level FlightAware
06:34AM 16.3420 -63.0140 126° Southeast 515 593 35,000  Level FlightAware
06:35AM 16.2940 -62.9540 130° Southeast 510 587 35,000  Level FlightAware
06:35AM 16.2150 -62.8610 131° Southeast 509 586 35,000  Level FlightAware
06:36AM 16.1560 -62.7930 132° Southeast 509 586 35,000  Level FlightAware
06:37AM 16.0910 -62.7170 132° Southeast 509 586 35,000  Level FlightAware
06:38AM 16.0260 -62.6430 132° Southeast 509 586 35,000  Level FlightAware
06:38AM 15.9270 -62.5270 132° Southeast 511 588 35,000  Level FlightAware
06:39AM 15.8490 -62.4360 132° Southeast 513 590 35,000  Level FlightAware
06:40AM 15.7810 -62.3570 132° Southeast 513 590 35,000  Level FlightAware
06:41AM 15.7270 -62.2950 132° Southeast 513 590 35,000  Level FlightAware
06:42AM 15.5990 -62.1470 132° Southeast 510 587 35,000  Level FlightAware
06:43AM 15.5420 -62.0820 132° Southeast 510 587 35,000  Level FlightAware
06:43AM 15.4780 -62.0080 132° Southeast 511 588 35,000  Level FlightAware
06:44AM 15.4100 -61.9310 132° Southeast 512 589 35,000  Level FlightAware
06:45AM 15.3260 -61.8340 132° Southeast 514 592 35,000  Level FlightAware
06:45AM 15.2620 -61.7610 132° Southeast 514 592 35,000  Level FlightAware
06:46AM 15.2010 -61.6910 132° Southeast 515 593 35,000  Level FlightAware
06:47AM 15.1260 -61.6050 132° Southeast 515 593 35,000  Level FlightAware
06:48AM 15.0600 -61.5300 132° Southeast 516 594 35,000  Level FlightAware
06:48AM 14.9920 -61.4530 132° Southeast 516 594 35,000  Level FlightAware
06:49AM 14.9240 -61.3760 132° Southeast 517 595 35,000  Level FlightAware
06:50AM 14.8600 -61.3030 132° Southeast 516 594 35,000  Level FlightAware
06:50AM 14.7870 -61.2210 133° Southeast 517 595 35,000  Level FlightAware
06:51AM 14.7230 -61.1480 132° Southeast 517 595 35,000  Level FlightAware
06:52AM 14.6580 -61.0750 133° Southeast 516 594 35,000  Level FlightAware
06:52AM 14.5930 -61.0050 134° Southeast 514 592 35,000  Level FlightAware
06:53AM 14.5180 -60.9280 135° Southeast 512 589 35,000  Level FlightAware
06:54AM 14.4540 -60.8630 135° Southeast 512 589 35,000 -1,200 Level FlightAware
06:55AM 14.3240 -60.7320 136° Southeast 516 594 32,700 -2,460 Descending FlightAware
06:56AM 14.2590 -60.6660 135° Southeast 519 597 30,500 -3,420 Descending FlightAware
06:56AM 14.1910 -60.5970 135° Southeast 521 600 28,200 -3,540 Descending FlightAware
06:57AM 14.1200 -60.5240 135° Southeast 524 603 25,800 -2,220 Descending FlightAware
06:58AM 14.0490 -60.4520 135° Southeast 506 582 25,100 -720 Descending FlightAware
06:58AM 13.9800 -60.3820 135° Southeast 509 586 24,800 -1,980 Descending FlightAware
06:59AM 13.9000 -60.3010 135° Southeast 514 592 22,300 -2,100 Descending FlightAware
07:00AM 13.8260 -60.2260 135° Southeast 485 558 21,500 -3,240 Descending FlightAware
07:01AM 13.7430 -60.1770 150° Southeast 426 490 17,200 -2,940 Descending FlightAware
07:02AM 13.6780 -60.1310 145° Southeast 426 490 17,200  Level FlightAware
07:02AM 13.6230 -60.0910 145° Southeast 426 490 17,200  Level FlightAware
07:03AM 13.5680 -60.0520 145° Southeast 426 490 17,200  Level FlightAware
07:04AM 13.5000 -60.0020 144° Southeast 426 490 17,200  Level FlightAware
07:04AM 13.4450 -59.9630 145° Southeast 426 490 17,200  Level FlightAware
07:07AM 13.2680 -59.7378 136° Southeast  Level Estimated
07:08AM 13.1850 -59.6324 136° Southeast  Level Estimated
07:09AM 13.1072 -59.5238 136° Southeast  Level FlightAware Approximate
07:10AM 13.0746 -59.4925 90° East  Level Estimated
07:11AM 13.0746 -59.4925 90° East  Level Estimated
07:12AM 13.0746 -59.4925 90° East  Level Estimated
07:13AM 13.0746 -59.4925 90° East  Level Estimated
07:14AM 13.0746 -59.4925 90° East  Level Estimated
07:15AM 13.0746 -59.4925 90° East  Level Estimated
07:16AM 13.0746 -59.4925 90° East  Level Estimated
07:17AM 13.0746 -59.4925 90° East  Level Estimated
07:18AM 13.0746 -59.4925 90° East  Level Estimated
07:19AM 13.0746 -59.4925 90° East  Level Estimated
07:20AM 13.0746 -59.4925 90° East  Level Estimated
07:21AM 13.0746 -59.4925 90° East  Level Estimated
07:22AM 13.0746 -59.4925 90° East  Level Estimated
07:23AM 13.0746 -59.4925 90° East  Level Estimated
07:24AM 13.0746 -59.4925 90° East  Level Estimated
07:25AM 13.0746 -59.4925 90° East  Level Estimated
07:26AM 13.0746 -59.4925 90° East  Level Estimated
07:27AM 13.0746 -59.4925 90° East  Level Estimated
07:28AM 13.0746 -59.4925 90° East  Level Estimated
07:29AM 13.0746 -59.4925 90° East  Level Estimated
07:30AM 13.0746 -59.4925 90° East  Level Estimated
07:31AM 13.0746 -59.4925 90° East  Level Estimated
07:32AM 13.0746 -59.4925 90° East  Level Estimated